Airfield :
LOGIN :

Register | Disclaimer

   EN    FR    IT 

 










Legend :    VFR   Marginal VFR   IFR   Intensive IFR   Very Intensive IFR
Visi :
Ceiling :
>= 8 km
>= 3000ft
5 to 8 km
1000 to 3000 ft
1500m to 5 km
500 to 1000 ft
800 to 1500m
200 to 500 ft
< 800m
< 200 ft
Symbols :   Thunderstorms  Fog  Heavy snow  Heavy precipitations  Wind > 20 kt
SIGMETs :     Misc.  Thunderstorms  Icing  Turbulence  Mountain Waves  Volcanic Ashes






- Airport Elevation : 505 ft
- IATA code : SXB


LFST - Strasbourg

CURRENT METAR :
  • 280630Z AUTO 35006KT 6000 NSC 04/02 Q1020 TEMPO BKN009

EXPIRED METARs :
  • 280600Z AUTO 34008KT 6000 NSC 04/02 Q1020 TEMPO BKN009
  • 280530Z AUTO 34007KT 7000 NSC 04/02 Q1020 TEMPO BKN009
  • 280500Z AUTO 34007KT 7000 FEW022 03/02 Q1020 TEMPO BKN009
  • 280430Z AUTO 34006KT 7000 FEW022 04/02 Q1020 TEMPO BKN009
  • 280400Z AUTO 35005KT 7000 NSC 03/02 Q1019 TEMPO BKN009
  • 280330Z AUTO 33003KT 7000 FEW034 03/02 Q1019 TEMPO BKN009
  • 280300Z AUTO 34002KT 6000 NSC 04/03 Q1019 TEMPO BKN009
  • 280230Z AUTO 34004KT 7000 FEW035 04/03 Q1018 TEMPO BKN009
  • 280200Z AUTO 33005KT 8000 NSC 04/03 Q1018 TEMPO BKN009
  • 280130Z AUTO 35003KT 9000 NSC 05/03 Q1018 TEMPO BKN009

TAF TAF LFST
Valid from the 28 at 06:00 until the 29 at 06:00 UTC


280500Z 2806/2906 34006KT 8000 FEW020
PROB40
TEMPO 2806/2811 BKN009
BECMG 2901/2904 4000 BR
PROB30
TEMPO 2904/2906 0500 BCFG BKN001



MET'MAP, your aeronautical weather chart ! - Copyright ORBIFLY December 2007 - Disclaimer

ORBIFLY MET'MAP TEAM :

Programming & Development : Alexandra Zaïnal
Original concept : Baudouin d'Aumeries
Technical & hardware support : Manuel Goepfert
Assistance : Marc-Olivier Méhu




SOURCES & CREDITS :

   NOAA